Time,TemperatureF,DewpointF,PressureIn,WindDirection,WindDirectionDegrees,WindSpeedMPH,WindSpeedGustMPH,Humidity,HourlyPrecipIn,Conditions,Clouds,dailyrainin,SoftwareType,DateUTC
2013-06-04 00:01:00,59.2,54.4,29.96,SSE,150,0.0,0.0,84,0.00,,---,0.39,VWS V14.01,2013-06-04 04:01:00,
2013-06-04 00:02:00,59.3,54.5,29.96,SSE,150,0.0,0.0,84,0.00,,---,0.00,VWS V14.01,2013-06-04 04:02:00,
2013-06-04 00:03:00,59.3,54.5,29.96,SSE,150,0.0,0.0,84,0.00,,---,0.00,VWS V14.01,2013-06-04 04:03:00,
2013-06-04 00:08:00,59.2,54.4,29.96,SSE,150,0.0,0.0,84,0.00,,---,0.00,VWS V14.01,2013-06-04 04:08:00,
2013-06-04 00:13:00,59.2,54.4,29.96,SSE,150,0.0,0.0,84,0.00,,---,0.00,VWS V14.01,2013-06-04 04:13:00,
2013-06-04 00:18:00,59.1,54.3,29.97,SSE,153,0.0,0.0,84,0.00,,---,0.00,VWS V14.01,2013-06-04 04:18:00,
2013-06-04 00:23:00,59.1,54.0,29.97,WSW,249,0.0,0.0,83,0.00,,---,0.00,VWS V14.01,2013-06-04 04:23:00,
2013-06-04 00:28:00,59.2,54.4,29.97,WSW,248,0.0,0.0,84,0.00,,---,0.00,VWS V14.01,2013-06-04 04:28:00,
2013-06-04 00:33:00,59.2,53.7,29.97,WSW,249,0.0,0.0,82,0.00,,---,0.00,VWS V14.01,2013-06-04 04:33:00,
2013-06-04 00:38:00,59.1,54.0,29.97,WSW,249,0.0,0.0,83,0.00,,---,0.00,VWS V14.01,2013-06-04 04:38:00,
2013-06-04 00:44:00,59.0,54.2,29.97,WSW,248,0.0,0.0,84,0.00,,---,0.00,VWS V14.01,2013-06-04 04:44:00,
2013-06-04 00:49:00,58.7,53.6,29.97,WSW,249,0.0,0.0,83,0.00,,---,0.00,VWS V14.01,2013-06-04 04:49:00,
2013-06-04 00:54:00,58.7,53.9,29.97,WSW,248,0.0,0.0,84,0.00,,---,0.00,VWS V14.01,2013-06-04 04:54:00,
2013-06-04 00:59:00,58.6,54.1,29.97,WSW,249,0.0,0.0,85,0.00,,---,0.00,VWS V14.01,2013-06-04 04:59:00,
2013-06-04 01:04:00,58.6,53.5,29.97,WSW,249,0.0,1.0,83,0.00,,---,0.00,VWS V14.01,2013-06-04 05:04:00,
2013-06-04 01:09:00,58.5,53.4,29.97,West,260,0.0,0.0,83,0.00,,---,0.00,VWS V14.01,2013-06-04 05:09:00,
2013-06-04 01:14:00,58.4,53.3,29.97,West,260,0.0,0.0,83,0.00,,---,0.00,VWS V14.01,2013-06-04 05:14:00,
2013-06-04 01:19:00,58.4,52.9,29.97,West,267,0.0,1.0,82,0.00,,---,0.00,VWS V14.01,2013-06-04 05:19:00,
2013-06-04 01:24:00,58.3,53.2,29.97,West,269,1.0,1.0,83,0.00,,---,0.00,VWS V14.01,2013-06-04 05:24:00,
2013-06-04 01:29:00,58.3,53.2,29.97,West,274,0.0,0.0,83,0.00,,---,0.00,VWS V14.01,2013-06-04 05:29:00,
2013-06-04 01:34:00,58.2,52.7,29.97,WNW,285,0.0,1.0,82,0.00,,---,0.00,VWS V14.01,2013-06-04 05:34:00,
2013-06-04 01:39:00,58.0,52.9,29.97,WNW,284,0.0,0.0,83,0.00,,---,0.00,VWS V14.01,2013-06-04 05:39:00,
2013-06-04 01:44:00,57.8,52.7,29.98,WNW,284,0.0,0.0,83,0.00,,---,0.00,VWS V14.01,2013-06-04 05:44:00,
2013-06-04 01:49:00,57.6,52.5,29.98,WNW,284,1.0,1.0,83,0.00,,---,0.00,VWS V14.01,2013-06-04 05:49:00,
2013-06-04 01:54:00,57.4,52.6,29.98,WNW,284,0.0,0.0,84,0.00,,---,0.00,VWS V14.01,2013-06-04 05:54:00,
2013-06-04 01:59:00,57.3,52.2,29.97,WNW,284,0.0,0.0,83,0.00,,---,0.00,VWS V14.01,2013-06-04 05:59:00,
2013-06-04 02:04:00,57.2,52.4,29.98,WSW,253,0.0,1.0,84,0.00,,---,0.00,VWS V14.01,2013-06-04 06:04:00,
2013-06-04 02:09:00,57.0,52.2,29.98,WSW,255,0.0,0.0,84,0.00,,---,0.00,VWS V14.01,2013-06-04 06:09:00,
2013-06-04 02:14:00,56.8,52.0,29.98,WSW,255,0.0,0.0,84,0.00,,---,0.00,VWS V14.01,2013-06-04 06:14:00,
2013-06-04 02:19:00,56.7,52.2,29.98,WSW,255,0.0,0.0,85,0.00,,---,0.00,VWS V14.01,2013-06-04 06:19:00,
2013-06-04 02:25:00,56.5,52.0,29.98,WSW,255,0.0,0.0,85,0.00,,---,0.00,VWS V14.01,2013-06-04 06:25:00,
2013-06-04 02:30:00,56.3,52.2,29.98,WSW,254,0.0,0.0,86,0.00,,---,0.00,VWS V14.01,2013-06-04 06:30:00,
2013-06-04 02:35:00,56.2,52.1,29.98,WSW,254,0.0,0.0,86,0.00,,---,0.00,VWS V14.01,2013-06-04 06:35:00,
2013-06-04 02:40:00,55.9,51.8,29.98,WSW,255,0.0,0.0,86,0.00,,---,0.00,VWS V14.01,2013-06-04 06:40:00,
2013-06-04 02:45:00,55.8,51.7,29.98,WSW,255,0.0,0.0,86,0.00,,---,0.00,VWS V14.01,2013-06-04 06:45:00,
2013-06-04 02:50:00,55.7,51.9,29.99,WSW,255,0.0,0.0,87,0.00,,---,0.00,VWS V14.01,2013-06-04 06:50:00,
2013-06-04 02:55:00,55.5,51.7,29.98,West,262,0.0,0.0,87,0.00,,---,0.00,VWS V14.01,2013-06-04 06:55:00,
2013-06-04 03:00:00,55.3,51.5,29.98,West,264,0.0,1.0,87,0.00,,---,0.00,VWS V14.01,2013-06-04 07:00:00,
2013-06-04 03:06:00,55.2,51.4,29.98,West,273,0.0,1.0,87,0.00,,---,0.00,VWS V14.01,2013-06-04 07:06:00,
2013-06-04 03:11:00,55.1,51.3,29.98,West,271,0.0,0.0,87,0.00,,---,0.00,VWS V14.01,2013-06-04 07:11:00,
2013-06-04 03:16:00,55.1,51.0,29.98,West,271,0.0,0.0,86,0.00,,---,0.00,VWS V14.01,2013-06-04 07:16:00,
2013-06-04 03:21:00,54.9,50.8,29.99,West,271,0.0,0.0,86,0.00,,---,0.00,VWS V14.01,2013-06-04 07:21:00,
2013-06-04 03:26:00,54.8,50.7,29.99,West,271,0.0,0.0,86,0.00,,---,0.00,VWS V14.01,2013-06-04 07:26:00,
2013-06-04 03:31:00,54.7,50.3,29.99,West,273,0.0,0.0,85,0.00,,---,0.00,VWS V14.01,2013-06-04 07:31:00,
2013-06-04 03:36:00,54.7,50.6,29.99,West,270,0.0,0.0,86,0.00,,---,0.00,VWS V14.01,2013-06-04 07:36:00,
2013-06-04 03:41:00,54.6,50.2,29.99,WNW,286,0.0,1.0,85,0.00,,---,0.00,VWS V14.01,2013-06-04 07:41:00,
2013-06-04 03:47:00,54.5,50.4,29.99,WNW,286,0.0,0.0,86,0.00,,---,0.00,VWS V14.01,2013-06-04 07:47:00,
2013-06-04 03:52:00,54.3,49.3,29.99,West,277,0.0,0.0,83,0.00,,---,0.00,VWS V14.01,2013-06-04 07:52:00,
2013-06-04 03:57:00,54.3,49.3,30.00,West,275,0.0,0.0,83,0.00,,---,0.00,VWS V14.01,2013-06-04 07:57:00,
2013-06-04 04:02:00,54.2,49.5,29.99,WSW,248,0.0,0.0,84,0.00,,---,0.00,VWS V14.01,2013-06-04 08:02:00,
2013-06-04 04:07:00,54.0,49.0,30.00,West,266,0.0,0.0,83,0.00,,---,0.00,VWS V14.01,2013-06-04 08:07:00,
2013-06-04 04:12:00,53.9,48.5,30.00,West,267,0.0,1.0,82,0.00,,---,0.00,VWS V14.01,2013-06-04 08:12:00,
2013-06-04 04:17:00,53.8,48.4,30.00,West,267,0.0,0.0,82,0.00,,---,0.00,VWS V14.01,2013-06-04 08:17:00,
2013-06-04 04:22:00,53.7,48.7,30.00,WSW,255,0.0,1.0,83,0.00,,---,0.00,VWS V14.01,2013-06-04 08:22:00,
2013-06-04 04:27:00,53.7,49.3,30.00,West,259,1.0,1.0,85,0.00,,---,0.00,VWS V14.01,2013-06-04 08:27:00,
2013-06-04 04:32:00,53.6,49.2,30.01,West,259,1.0,1.0,85,0.00,,---,0.00,VWS V14.01,2013-06-04 08:32:00,
2013-06-04 04:37:00,53.4,49.0,30.01,West,274,0.0,1.0,85,0.00,,---,0.00,VWS V14.01,2013-06-04 08:37:00,
2013-06-04 04:42:00,53.4,49.0,30.01,West,276,0.0,0.0,85,0.00,,---,0.00,VWS V14.01,2013-06-04 08:42:00,
2013-06-04 04:47:00,53.3,49.5,30.01,West,276,0.0,1.0,87,0.00,,---,0.00,VWS V14.01,2013-06-04 08:47:00,
2013-06-04 04:52:00,53.1,49.3,30.01,West,271,0.0,0.0,87,0.00,,---,0.00,VWS V14.01,2013-06-04 08:52:00,
2013-06-04 04:57:00,52.8,49.3,30.01,West,271,0.0,1.0,88,0.00,,---,0.00,VWS V14.01,2013-06-04 08:57:00,
2013-06-04 05:03:00,52.6,49.2,30.01,West,276,0.0,0.0,88,0.00,,---,0.00,VWS V14.01,2013-06-04 09:03:00,
2013-06-04 05:08:00,52.4,49.0,30.01,West,278,0.0,0.0,88,0.00,,---,0.00,VWS V14.01,2013-06-04 09:08:00,
2013-06-04 05:13:00,52.3,48.9,30.02,West,271,0.0,1.0,88,0.00,,---,0.00,VWS V14.01,2013-06-04 09:13:00,
2013-06-04 05:18:00,52.1,47.7,30.02,West,271,0.0,1.0,85,0.00,,---,0.00,VWS V14.01,2013-06-04 09:18:00,
2013-06-04 05:23:00,52.0,46.7,30.02,West,275,0.0,1.0,82,0.00,,---,0.00,VWS V14.01,2013-06-04 09:23:00,
2013-06-04 05:28:00,52.0,46.7,30.02,West,271,0.0,0.0,82,0.00,,---,0.00,VWS V14.01,2013-06-04 09:28:00,
2013-06-04 05:33:00,51.9,46.3,30.03,West,266,0.0,1.0,81,0.00,,---,0.00,VWS V14.01,2013-06-04 09:33:00,
2013-06-04 05:38:00,51.8,45.8,30.03,West,270,0.0,2.0,80,0.00,,---,0.00,VWS V14.01,2013-06-04 09:38:00,
2013-06-04 05:43:00,51.6,46.0,30.03,West,275,0.0,1.0,81,0.00,,---,0.00,VWS V14.01,2013-06-04 09:43:00,
2013-06-04 05:48:00,51.4,45.8,30.03,West,276,1.0,1.0,81,0.00,,---,0.00,VWS V14.01,2013-06-04 09:48:00,
2013-06-04 05:53:00,51.2,44.9,30.04,West,281,0.0,0.0,79,0.00,,---,0.00,VWS V14.01,2013-06-04 09:53:00,
2013-06-04 05:59:00,51.1,45.2,30.04,West,259,0.0,0.0,80,0.00,,---,0.00,VWS V14.01,2013-06-04 09:59:00,
2013-06-04 06:04:00,50.9,44.6,30.04,West,277,0.0,0.0,79,0.00,,---,0.00,VWS V14.01,2013-06-04 10:04:00,
2013-06-04 06:09:00,50.9,44.3,30.04,West,275,0.0,0.0,78,0.00,,---,0.00,VWS V14.01,2013-06-04 10:09:00,
2013-06-04 06:14:00,50.8,43.5,30.04,West,276,1.0,1.0,76,0.00,,---,0.00,VWS V14.01,2013-06-04 10:14:00,
2013-06-04 06:19:00,50.8,43.5,30.04,West,274,0.0,1.0,76,0.00,,---,0.00,VWS V14.01,2013-06-04 10:19:00,
2013-06-04 06:24:00,50.9,44.0,30.05,West,274,0.0,0.0,77,0.00,,---,0.00,VWS V14.01,2013-06-04 10:24:00,
2013-06-04 06:29:00,50.8,43.5,30.05,West,278,1.0,1.0,76,0.00,,---,0.00,VWS V14.01,2013-06-04 10:29:00,
2013-06-04 06:34:00,50.8,43.5,30.05,West,270,0.0,2.0,76,0.00,,---,0.00,VWS V14.01,2013-06-04 10:34:00,
2013-06-04 06:39:00,50.9,44.0,30.05,West,270,0.0,1.0,77,0.00,,---,0.00,VWS V14.01,2013-06-04 10:39:00,
2013-06-04 06:44:00,51.0,44.0,30.06,WNW,287,0.0,1.0,77,0.00,,---,0.00,VWS V14.01,2013-06-04 10:44:00,
2013-06-04 06:49:00,51.0,44.4,30.06,WNW,288,1.0,1.0,78,0.00,,---,0.00,VWS V14.01,2013-06-04 10:49:00,
2013-06-04 06:54:00,51.0,44.0,30.06,West,278,0.0,1.0,77,0.00,,---,0.00,VWS V14.01,2013-06-04 10:54:00,
2013-06-04 06:59:00,51.2,44.6,30.06,WNW,284,0.0,1.0,78,0.00,,---,0.00,VWS V14.01,2013-06-04 10:59:00,
2013-06-04 07:04:00,51.3,44.3,30.06,West,264,0.0,1.0,77,0.00,,---,0.00,VWS V14.01,2013-06-04 11:04:00,
2013-06-04 07:09:00,51.4,44.8,30.07,WSW,255,0.0,1.0,78,0.00,,---,0.00,VWS V14.01,2013-06-04 11:09:00,
2013-06-04 07:14:00,51.5,45.5,30.07,WSW,255,0.0,0.0,80,0.00,,---,0.00,VWS V14.01,2013-06-04 11:14:00,
2013-06-04 07:19:00,51.6,45.3,30.07,WSW,255,0.0,0.0,79,0.00,,---,0.00,VWS V14.01,2013-06-04 11:19:00,
2013-06-04 07:27:00,51.9,44.9,30.07,West,266,0.0,1.0,77,0.00,,---,0.00,VWS V14.01,2013-06-04 11:27:00,
2013-06-04 07:32:00,52.1,44.8,30.07,West,281,0.0,1.0,76,0.00,,---,0.00,VWS V14.01,2013-06-04 11:32:00,
2013-06-04 07:37:00,52.4,45.8,30.08,WSW,250,0.0,0.0,78,0.00,,---,0.00,VWS V14.01,2013-06-04 11:37:00,
2013-06-04 07:42:00,52.5,45.5,30.08,WSW,252,0.0,0.0,77,0.00,,---,0.00,VWS V14.01,2013-06-04 11:42:00,
2013-06-04 07:47:00,52.8,46.5,30.08,WSW,252,0.0,0.0,79,0.00,,---,0.00,VWS V14.01,2013-06-04 11:47:00,
2013-06-04 07:53:00,53.0,45.3,30.08,West,278,0.0,0.0,75,0.00,,---,0.00,VWS V14.01,2013-06-04 11:53:00,
2013-06-04 07:58:00,53.3,46.3,30.08,WSW,253,0.0,0.0,77,0.00,,---,0.00,VWS V14.01,2013-06-04 11:58:00,
2013-06-04 08:03:00,53.6,45.5,30.09,WSW,253,0.0,1.0,74,0.00,,---,0.00,VWS V14.01,2013-06-04 12:03:00,
2013-06-04 08:08:00,53.8,46.1,30.09,NW,314,0.0,0.0,75,0.00,,---,0.00,VWS V14.01,2013-06-04 12:08:00,
2013-06-04 08:13:00,54.0,46.3,30.09,NW,315,0.0,0.0,75,0.00,,---,0.00,VWS V14.01,2013-06-04 12:13:00,
2013-06-04 08:18:00,54.2,46.5,30.09,WSW,252,0.0,0.0,75,0.00,,---,0.00,VWS V14.01,2013-06-04 12:18:00,
2013-06-04 08:23:00,54.5,46.8,30.10,West,269,0.0,0.0,75,0.00,,---,0.00,VWS V14.01,2013-06-04 12:23:00,
2013-06-04 08:28:00,54.6,46.5,30.10,West,262,0.0,0.0,74,0.00,,---,0.00,VWS V14.01,2013-06-04 12:28:00,
2013-06-04 08:33:00,54.9,46.4,30.10,WSW,252,0.0,0.0,73,0.00,,---,0.00,VWS V14.01,2013-06-04 12:33:00,
2013-06-04 08:38:00,55.1,46.2,30.10,WSW,239,0.0,0.0,72,0.00,,---,0.00,VWS V14.01,2013-06-04 12:38:00,
2013-06-04 08:43:00,55.4,46.9,30.10,West,270,0.0,0.0,73,0.00,,---,0.00,VWS V14.01,2013-06-04 12:43:00,
2013-06-04 08:48:00,55.6,46.4,30.11,West,270,0.0,0.0,71,0.00,,---,0.00,VWS V14.01,2013-06-04 12:48:00,
2013-06-04 08:53:00,55.7,46.8,30.11,West,270,0.0,0.0,72,0.00,,---,0.00,VWS V14.01,2013-06-04 12:53:00,
2013-06-04 08:58:00,55.9,47.0,30.11,SW,225,0.0,0.0,72,0.00,,---,0.00,VWS V14.01,2013-06-04 12:58:00,
2013-06-04 09:03:00,56.2,47.7,30.11,SSW,211,0.0,1.0,73,0.00,,---,0.00,VWS V14.01,2013-06-04 13:03:00,
2013-06-04 09:08:00,56.5,47.2,30.11,SSW,208,0.0,1.0,71,0.00,,---,0.00,VWS V14.01,2013-06-04 13:08:00,
2013-06-04 09:13:00,56.8,47.9,30.11,WSW,250,0.0,0.0,72,0.00,,---,0.00,VWS V14.01,2013-06-04 13:13:00,
2013-06-04 09:18:00,57.2,48.3,30.11,WSW,250,0.0,0.0,72,0.00,,---,0.00,VWS V14.01,2013-06-04 13:18:00,
2013-06-04 09:24:00,57.4,48.1,30.12,WSW,250,0.0,0.0,71,0.00,,---,0.00,VWS V14.01,2013-06-04 13:24:00,
2013-06-04 09:29:00,57.8,47.7,30.12,South,179,0.0,0.0,69,0.00,,---,0.00,VWS V14.01,2013-06-04 13:29:00,
2013-06-04 09:34:00,58.2,47.3,30.12,SW,224,0.0,0.0,67,0.00,,---,0.00,VWS V14.01,2013-06-04 13:34:00,
2013-06-04 09:39:00,58.5,47.6,30.12,SSW,204,0.0,0.0,67,0.00,,---,0.00,VWS V14.01,2013-06-04 13:39:00,
2013-06-04 09:44:00,58.8,46.7,30.12,SW,226,0.0,0.0,64,0.00,,---,0.00,VWS V14.01,2013-06-04 13:44:00,
2013-06-04 09:50:00,59.1,46.5,30.12,SSE,165,0.0,0.0,63,0.00,,---,0.00,VWS V14.01,2013-06-04 13:50:00,
2013-06-04 09:55:00,59.2,45.8,30.12,SE,135,0.0,0.0,61,0.00,,---,0.00,VWS V14.01,2013-06-04 13:55:00,
2013-06-04 10:00:00,59.4,46.4,30.12,SSE,167,1.0,1.0,62,0.00,,---,0.00,VWS V14.01,2013-06-04 14:00:00,
2013-06-04 10:05:00,59.8,47.6,30.12,WNW,286,0.0,1.0,64,0.00,,---,0.00,VWS V14.01,2013-06-04 14:05:00,
2013-06-04 10:10:00,60.2,46.3,30.12,SW,235,0.0,0.0,60,0.00,,---,0.00,VWS V14.01,2013-06-04 14:10:00,
2013-06-04 10:16:00,60.5,47.9,30.12,SW,221,0.0,0.0,63,0.00,,---,0.00,VWS V14.01,2013-06-04 14:16:00,
2013-06-04 10:21:00,60.8,48.1,30.12,WNW,298,0.0,0.0,63,0.00,,---,0.00,VWS V14.01,2013-06-04 14:21:00,
2013-06-04 10:26:00,60.9,46.0,30.12,WSW,252,0.0,0.0,58,0.00,,---,0.00,VWS V14.01,2013-06-04 14:26:00,
2013-06-04 10:31:00,61.1,47.1,30.12,SW,232,0.0,1.0,60,0.00,,---,0.00,VWS V14.01,2013-06-04 14:31:00,
2013-06-04 10:36:00,61.1,46.2,30.12,SSE,149,0.0,0.0,58,0.00,,---,0.00,VWS V14.01,2013-06-04 14:36:00,
2013-06-04 10:41:00,61.4,47.4,30.12,SE,128,0.0,0.0,60,0.00,,---,0.00,VWS V14.01,2013-06-04 14:41:00,
2013-06-04 10:46:00,61.8,46.9,30.12,SW,217,0.0,0.0,58,0.00,,---,0.00,VWS V14.01,2013-06-04 14:46:00,
2013-06-04 10:51:00,62.2,47.7,30.12,NNW,340,0.0,1.0,59,0.00,,---,0.00,VWS V14.01,2013-06-04 14:51:00,
2013-06-04 10:56:00,62.5,49.3,30.12,NNE,18,0.0,0.0,62,0.00,,---,0.00,VWS V14.01,2013-06-04 14:56:00,
2013-06-04 11:01:00,63.0,48.5,30.12,South,183,0.0,1.0,59,0.00,,---,0.00,VWS V14.01,2013-06-04 15:01:00,
2013-06-04 11:06:00,63.5,50.7,30.11,SSE,149,0.0,0.0,63,0.00,,---,0.00,VWS V14.01,2013-06-04 15:06:00,
2013-06-04 11:11:00,63.4,48.8,30.11,SSE,160,1.0,1.0,59,0.00,,---,0.00,VWS V14.01,2013-06-04 15:11:00,
2013-06-04 11:16:00,63.7,48.7,30.12,South,190,0.0,1.0,58,0.00,,---,0.00,VWS V14.01,2013-06-04 15:16:00,
2013-06-04 11:21:00,63.9,49.3,30.11,SSE,155,0.0,2.0,59,0.00,,---,0.00,VWS V14.01,2013-06-04 15:21:00,
2013-06-04 11:26:00,64.3,48.8,30.12,East,98,1.0,1.0,57,0.00,,---,0.00,VWS V14.01,2013-06-04 15:26:00,
2013-06-04 11:31:00,64.6,49.5,30.12,NNE,26,0.0,1.0,58,0.00,,---,0.00,VWS V14.01,2013-06-04 15:31:00,
2013-06-04 11:36:00,64.7,48.7,30.12,South,191,0.0,0.0,56,0.00,,---,0.00,VWS V14.01,2013-06-04 15:36:00,
2013-06-04 11:42:00,65.0,48.0,30.12,NNW,330,1.0,1.0,54,0.00,,---,0.00,VWS V14.01,2013-06-04 15:42:00,
2013-06-04 11:47:00,65.4,49.8,30.12,SSW,204,1.0,1.0,57,0.00,,---,0.00,VWS V14.01,2013-06-04 15:47:00,
2013-06-04 11:52:00,65.6,47.0,30.12,NNW,328,0.0,2.0,51,0.00,,---,0.00,VWS V14.01,2013-06-04 15:52:00,
2013-06-04 11:57:00,65.4,48.3,30.11,SE,125,0.0,0.0,54,0.00,,---,0.00,VWS V14.01,2013-06-04 15:57:00,
2013-06-04 12:02:00,65.9,49.3,30.11,SW,218,0.0,0.0,55,0.00,,---,0.00,VWS V14.01,2013-06-04 16:02:00,
2013-06-04 12:07:00,67.3,51.6,30.11,North,354,0.0,0.0,57,0.00,,---,0.00,VWS V14.01,2013-06-04 16:07:00,
2013-06-04 12:12:00,68.1,50.3,30.11,WSW,250,1.0,2.0,53,0.00,,---,0.00,VWS V14.01,2013-06-04 16:12:00,
2013-06-04 12:17:00,68.4,48.0,30.11,SSE,151,0.0,0.0,48,0.00,,---,0.00,VWS V14.01,2013-06-04 16:17:00,
2013-06-04 12:22:00,68.8,51.0,30.11,South,186,1.0,1.0,53,0.00,,---,0.00,VWS V14.01,2013-06-04 16:22:00,
2013-06-04 12:27:00,68.7,47.7,30.11,ENE,66,0.0,0.0,47,0.00,,---,0.00,VWS V14.01,2013-06-04 16:27:00,
2013-06-04 12:32:00,68.9,47.9,30.11,ENE,62,0.0,1.0,47,0.00,,---,0.00,VWS V14.01,2013-06-04 16:32:00,
2013-06-04 12:37:00,68.9,48.4,30.11,South,169,0.0,1.0,48,0.00,,---,0.00,VWS V14.01,2013-06-04 16:37:00,
2013-06-04 12:42:00,69.3,48.8,30.11,ESE,115,1.0,1.0,48,0.00,,---,0.00,VWS V14.01,2013-06-04 16:42:00,
2013-06-04 12:47:00,69.1,49.7,30.11,East,79,0.0,1.0,50,0.00,,---,0.00,VWS V14.01,2013-06-04 16:47:00,
2013-06-04 12:53:00,69.2,51.9,30.11,WSW,252,0.0,0.0,54,0.00,,---,0.00,VWS V14.01,2013-06-04 16:53:00,
2013-06-04 12:58:00,69.7,50.8,30.11,NNW,343,0.0,0.0,51,0.00,,---,0.00,VWS V14.01,2013-06-04 16:58:00,
2013-06-04 13:03:00,70.2,49.0,30.10,SE,129,0.0,0.0,47,0.00,,---,0.00,VWS V14.01,2013-06-04 17:03:00,
2013-06-04 13:08:00,70.3,49.1,30.10,SSE,152,0.0,0.0,47,0.00,,---,0.00,VWS V14.01,2013-06-04 17:08:00,
2013-06-04 13:13:00,70.6,50.5,30.10,NE,34,2.0,3.0,49,0.00,,---,0.00,VWS V14.01,2013-06-04 17:13:00,
2013-06-04 13:19:00,70.7,47.7,30.10,ENE,58,0.0,0.0,44,0.00,,---,0.00,VWS V14.01,2013-06-04 17:19:00,
2013-06-04 13:24:00,70.9,50.8,30.09,ENE,70,0.0,0.0,49,0.00,,---,0.00,VWS V14.01,2013-06-04 17:24:00,
2013-06-04 13:29:00,71.3,48.9,30.09,WNW,300,0.0,1.0,45,0.00,,---,0.00,VWS V14.01,2013-06-04 17:29:00,
2013-06-04 13:34:00,71.9,50.6,30.09,SE,124,1.0,1.0,47,0.00,,---,0.00,VWS V14.01,2013-06-04 17:34:00,
2013-06-04 13:39:00,71.8,51.1,30.09,NNW,327,0.0,1.0,48,0.00,,---,0.00,VWS V14.01,2013-06-04 17:39:00,
2013-06-04 13:44:00,71.6,48.6,30.08,SSW,200,0.0,0.0,44,0.00,,---,0.00,VWS V14.01,2013-06-04 17:44:00,
2013-06-04 13:49:00,71.7,50.4,30.08,South,186,0.0,0.0,47,0.00,,---,0.00,VWS V14.01,2013-06-04 17:49:00,
2013-06-04 13:54:00,71.9,51.2,30.08,ENE,77,0.0,0.0,48,0.00,,---,0.00,VWS V14.01,2013-06-04 17:54:00,
2013-06-04 13:59:00,71.9,50.0,30.08,WSW,238,0.0,1.0,46,0.00,,---,0.00,VWS V14.01,2013-06-04 17:59:00,
2013-06-04 14:04:00,71.9,51.7,30.08,WNW,302,1.0,1.0,49,0.00,,---,0.00,VWS V14.01,2013-06-04 18:04:00,
2013-06-04 14:09:00,71.1,48.7,30.08,South,189,0.0,0.0,45,0.00,,---,0.00,VWS V14.01,2013-06-04 18:09:00,
2013-06-04 14:14:00,70.8,49.0,30.08,NNW,342,1.0,1.0,46,0.00,,---,0.00,VWS V14.01,2013-06-04 18:14:00,
2013-06-04 14:19:00,70.3,49.7,30.08,East,95,1.0,1.0,48,0.00,,---,0.00,VWS V14.01,2013-06-04 18:19:00,
2013-06-04 14:24:00,70.1,50.1,30.08,NNE,32,0.0,1.0,49,0.00,,---,0.00,VWS V14.01,2013-06-04 18:24:00,
2013-06-04 14:29:00,70.0,51.1,30.08,NNE,31,0.0,0.0,51,0.00,,---,0.00,VWS V14.01,2013-06-04 18:29:00,
2013-06-04 14:35:00,70.0,48.9,30.08,SW,232,0.0,0.0,47,0.00,,---,0.00,VWS V14.01,2013-06-04 18:35:00,
2013-06-04 14:40:00,70.0,52.6,30.08,East,93,0.0,1.0,54,0.00,,---,0.00,VWS V14.01,2013-06-04 18:40:00,
2013-06-04 14:45:00,69.8,52.4,30.08,SSW,203,0.0,0.0,54,0.00,,---,0.00,VWS V14.01,2013-06-04 18:45:00,
2013-06-04 14:50:00,69.7,50.2,30.08,NNE,18,0.0,0.0,50,0.00,,---,0.00,VWS V14.01,2013-06-04 18:50:00,
2013-06-04 14:55:00,69.7,50.2,30.08,NW,316,0.0,0.0,50,0.00,,---,0.00,VWS V14.01,2013-06-04 18:55:00,
2013-06-04 15:00:00,70.0,51.1,30.08,East,86,0.0,0.0,51,0.00,,---,0.00,VWS V14.01,2013-06-04 19:00:00,
2013-06-04 15:05:00,70.1,52.2,30.08,SSW,207,0.0,1.0,53,0.00,,---,0.00,VWS V14.01,2013-06-04 19:05:00,
2013-06-04 15:10:00,70.0,50.5,30.08,SSW,211,1.0,1.0,50,0.00,,---,0.00,VWS V14.01,2013-06-04 19:10:00,
2013-06-04 15:15:00,70.1,52.7,30.08,West,263,0.0,1.0,54,0.00,,---,0.00,VWS V14.01,2013-06-04 19:15:00,
2013-06-04 15:21:00,70.1,51.2,30.08,ESE,113,0.0,0.0,51,0.00,,---,0.00,VWS V14.01,2013-06-04 19:21:00,
2013-06-04 15:26:00,70.1,53.2,30.08,ESE,113,0.0,0.0,55,0.00,,---,0.00,VWS V14.01,2013-06-04 19:26:00,
2013-06-04 15:31:00,69.9,52.0,30.08,NE,34,0.0,0.0,53,0.00,,---,0.00,VWS V14.01,2013-06-04 19:31:00,
2013-06-04 15:36:00,69.9,49.3,30.08,West,269,0.0,0.0,48,0.00,,---,0.00,VWS V14.01,2013-06-04 19:36:00,
2013-06-04 15:41:00,69.9,49.9,30.08,SW,214,0.0,0.0,49,0.00,,---,0.00,VWS V14.01,2013-06-04 19:41:00,
2013-06-04 15:46:00,70.0,50.0,30.09,NNW,345,0.0,0.0,49,0.00,,---,0.00,VWS V14.01,2013-06-04 19:46:00,
2013-06-04 15:52:00,70.1,53.7,30.09,SE,129,0.0,0.0,56,0.00,,---,0.00,VWS V14.01,2013-06-04 19:52:00,
2013-06-04 15:57:00,69.8,53.4,30.08,SE,139,0.0,0.0,56,0.00,,---,0.00,VWS V14.01,2013-06-04 19:57:00,
2013-06-04 16:02:00,69.6,51.2,30.08,SSW,208,0.0,0.0,52,0.00,,---,0.00,VWS V14.01,2013-06-04 20:02:00,
2013-06-04 16:07:00,69.7,49.7,30.08,SW,219,0.0,0.0,49,0.00,,---,0.00,VWS V14.01,2013-06-04 20:07:00,
2013-06-04 16:12:00,69.9,52.0,30.08,West,262,0.0,1.0,53,0.00,,---,0.00,VWS V14.01,2013-06-04 20:12:00,
2013-06-04 16:17:00,69.9,51.5,30.08,WSW,249,0.0,0.0,52,0.00,,---,0.00,VWS V14.01,2013-06-04 20:17:00,
2013-06-04 16:22:00,70.3,51.9,30.08,SSW,204,0.0,0.0,52,0.00,,---,0.00,VWS V14.01,2013-06-04 20:22:00,
2013-06-04 16:27:00,70.4,49.8,30.08,South,181,0.0,0.0,48,0.00,,---,0.00,VWS V14.01,2013-06-04 20:27:00,
2013-06-04 16:32:00,70.3,51.3,30.08,SW,215,1.0,2.0,51,0.00,,---,0.00,VWS V14.01,2013-06-04 20:32:00,
2013-06-04 16:37:00,70.4,49.2,30.08,SSW,203,0.0,0.0,47,0.00,,---,0.00,VWS V14.01,2013-06-04 20:37:00,
2013-06-04 16:42:00,70.9,50.8,30.07,ESE,108,0.0,1.0,49,0.00,,---,0.00,VWS V14.01,2013-06-04 20:42:00,
2013-06-04 16:48:00,71.2,51.6,30.07,SE,146,0.0,0.0,50,0.00,,---,0.00,VWS V14.01,2013-06-04 20:48:00,
2013-06-04 16:53:00,71.4,53.4,30.07,SE,145,0.0,0.0,53,0.00,,---,0.00,VWS V14.01,2013-06-04 20:53:00,
2013-06-04 16:58:00,71.1,52.1,30.07,ESE,122,0.0,0.0,51,0.00,,---,0.00,VWS V14.01,2013-06-04 20:58:00,
2013-06-04 17:03:00,70.9,49.7,30.07,West,277,0.0,1.0,47,0.00,,---,0.00,VWS V14.01,2013-06-04 21:03:00,
2013-06-04 17:08:00,70.7,53.3,30.07,West,277,0.0,0.0,54,0.00,,---,0.00,VWS V14.01,2013-06-04 21:08:00,
2013-06-04 17:13:00,70.7,53.8,30.07,West,278,0.0,0.0,55,0.00,,---,0.00,VWS V14.01,2013-06-04 21:13:00,
2013-06-04 17:18:00,70.4,50.9,30.07,West,278,0.0,0.0,50,0.00,,---,0.00,VWS V14.01,2013-06-04 21:18:00,
2013-06-04 17:23:00,70.2,53.8,30.07,West,278,0.0,0.0,56,0.00,,---,0.00,VWS V14.01,2013-06-04 21:23:00,
2013-06-04 17:28:00,69.7,50.8,30.07,West,278,0.0,0.0,51,0.00,,---,0.00,VWS V14.01,2013-06-04 21:28:00,
2013-06-04 17:33:00,69.4,51.5,30.07,SW,225,0.0,0.0,53,0.00,,---,0.00,VWS V14.01,2013-06-04 21:33:00,
2013-06-04 17:38:00,69.2,51.4,30.07,SW,225,0.0,0.0,53,0.00,,---,0.00,VWS V14.01,2013-06-04 21:38:00,
2013-06-04 17:43:00,69.3,53.0,30.07,SW,225,0.0,0.0,56,0.00,,---,0.00,VWS V14.01,2013-06-04 21:43:00,
2013-06-04 17:49:00,69.2,52.4,30.07,SW,226,0.0,0.0,55,0.00,,---,0.00,VWS V14.01,2013-06-04 21:49:00,
2013-06-04 17:54:00,69.1,52.8,30.07,South,186,0.0,0.0,56,0.00,,---,0.00,VWS V14.01,2013-06-04 21:54:00,
2013-06-04 17:59:00,68.9,52.6,30.07,South,186,0.0,0.0,56,0.00,,---,0.00,VWS V14.01,2013-06-04 21:59:00,
2013-06-04 18:04:00,68.6,52.8,30.07,South,186,0.0,0.0,57,0.00,,---,0.00,VWS V14.01,2013-06-04 22:04:00,
2013-06-04 18:09:00,68.3,51.5,30.07,South,186,0.0,0.0,55,0.00,,---,0.00,VWS V14.01,2013-06-04 22:09:00,
2013-06-04 18:14:00,68.1,53.7,30.07,South,186,0.0,0.0,60,0.00,,---,0.00,VWS V14.01,2013-06-04 22:14:00,
2013-06-04 18:19:00,67.9,53.5,30.07,South,186,0.0,0.0,60,0.00,,---,0.00,VWS V14.01,2013-06-04 22:19:00,
2013-06-04 18:24:00,67.7,53.3,30.07,South,186,0.0,0.0,60,0.00,,---,0.00,VWS V14.01,2013-06-04 22:24:00,
2013-06-04 18:29:00,67.5,53.6,30.07,South,186,0.0,0.0,61,0.00,,---,0.00,VWS V14.01,2013-06-04 22:29:00,
2013-06-04 18:34:00,67.2,53.3,30.07,South,186,0.0,0.0,61,0.00,,---,0.00,VWS V14.01,2013-06-04 22:34:00,
2013-06-04 18:39:00,67.0,53.6,30.07,South,186,0.0,0.0,62,0.00,,---,0.00,VWS V14.01,2013-06-04 22:39:00,
2013-06-04 18:44:00,66.7,52.8,30.07,SSW,195,0.0,0.0,61,0.00,,---,0.00,VWS V14.01,2013-06-04 22:44:00,
2013-06-04 18:49:00,66.6,53.6,30.07,SSW,194,0.0,0.0,63,0.00,,---,0.00,VWS V14.01,2013-06-04 22:49:00,
2013-06-04 18:55:00,66.4,51.2,30.07,SSW,195,0.0,0.0,58,0.00,,---,0.00,VWS V14.01,2013-06-04 22:55:00,
2013-06-04 19:00:00,66.4,53.4,30.07,SSW,195,0.0,0.0,63,0.00,,---,0.00,VWS V14.01,2013-06-04 23:00:00,
2013-06-04 19:05:00,66.3,53.8,30.07,SSW,194,0.0,0.0,64,0.00,,---,0.00,VWS V14.01,2013-06-04 23:05:00,
2013-06-04 19:10:00,66.0,53.1,30.07,SSW,194,0.0,0.0,63,0.00,,---,0.00,VWS V14.01,2013-06-04 23:10:00,
2013-06-04 19:15:00,65.7,52.3,30.07,SSW,195,0.0,0.0,62,0.00,,---,0.00,VWS V14.01,2013-06-04 23:15:00,
2013-06-04 19:20:00,65.4,52.9,30.08,SSW,194,0.0,0.0,64,0.00,,---,0.00,VWS V14.01,2013-06-04 23:20:00,
2013-06-04 19:25:00,65.1,52.6,30.08,SSW,194,0.0,0.0,64,0.00,,---,0.00,VWS V14.01,2013-06-04 23:25:00,
2013-06-04 19:30:00,64.7,52.7,30.08,SSW,194,0.0,0.0,65,0.00,,---,0.00,VWS V14.01,2013-06-04 23:30:00,
2013-06-04 19:35:00,64.4,52.4,30.08,SSW,194,0.0,0.0,65,0.00,,---,0.00,VWS V14.01,2013-06-04 23:35:00,
2013-06-04 19:40:00,64.3,52.3,30.08,SSW,195,0.0,0.0,65,0.00,,---,0.00,VWS V14.01,2013-06-04 23:40:00,
2013-06-04 19:45:00,64.1,51.3,30.08,SSW,195,0.0,0.0,63,0.00,,---,0.00,VWS V14.01,2013-06-04 23:45:00,
2013-06-04 19:51:00,63.9,51.5,30.08,SSW,195,0.0,0.0,64,0.00,,---,0.00,VWS V14.01,2013-06-04 23:51:00,
2013-06-04 19:56:00,63.8,51.4,30.08,SSW,195,0.0,0.0,64,0.00,,---,0.00,VWS V14.01,2013-06-04 23:56:00,
2013-06-04 20:01:00,63.8,51.8,30.08,SSW,194,0.0,0.0,65,0.00,,---,0.00,VWS V14.01,2013-06-05 00:01:00,
2013-06-04 20:06:00,63.6,51.2,30.09,SSW,194,0.0,0.0,64,0.00,,---,0.00,VWS V14.01,2013-06-05 00:06:00,
2013-06-04 20:12:00,63.5,51.1,30.09,SSW,195,0.0,0.0,64,0.00,,---,0.00,VWS V14.01,2013-06-05 00:12:00,
2013-06-04 20:17:00,63.2,50.8,30.09,SSW,200,0.0,0.0,64,0.00,,---,0.00,VWS V14.01,2013-06-05 00:17:00,
2013-06-04 20:22:00,63.0,50.7,30.09,SSW,201,0.0,0.0,64,0.00,,---,0.00,VWS V14.01,2013-06-05 00:22:00,
2013-06-04 20:27:00,62.7,50.4,30.09,SSW,202,0.0,0.0,64,0.00,,---,0.00,VWS V14.01,2013-06-05 00:27:00,
2013-06-04 20:32:00,62.5,50.2,30.09,SSW,201,0.0,0.0,64,0.00,,---,0.00,VWS V14.01,2013-06-05 00:32:00,
2013-06-04 20:37:00,62.4,50.9,30.09,SSW,201,0.0,0.0,66,0.00,,---,0.00,VWS V14.01,2013-06-05 00:37:00,
2013-06-04 20:42:00,62.2,49.9,30.09,SSW,201,0.0,0.0,64,0.00,,---,0.00,VWS V14.01,2013-06-05 00:42:00,
2013-06-04 20:48:00,62.1,49.4,30.09,SSW,201,0.0,0.0,63,0.00,,---,0.00,VWS V14.01,2013-06-05 00:48:00,
2013-06-04 20:53:00,62.0,49.7,30.09,SSW,201,0.0,0.0,64,0.00,,---,0.00,VWS V14.01,2013-06-05 00:53:00,
2013-06-04 20:58:00,61.9,49.2,30.09,SSW,201,0.0,0.0,63,0.00,,---,0.00,VWS V14.01,2013-06-05 00:58:00,
2013-06-04 21:03:00,61.8,49.5,30.09,SSW,201,0.0,0.0,64,0.00,,---,0.00,VWS V14.01,2013-06-05 01:03:00,
2013-06-04 21:08:00,61.7,49.4,30.09,SSW,201,0.0,0.0,64,0.00,,---,0.00,VWS V14.01,2013-06-05 01:08:00,
2013-06-04 21:13:00,61.6,48.9,30.09,SSW,201,0.0,0.0,63,0.00,,---,0.00,VWS V14.01,2013-06-05 01:13:00,
2013-06-04 21:18:00,61.6,49.3,30.09,SSW,202,0.0,0.0,64,0.00,,---,0.00,VWS V14.01,2013-06-05 01:18:00,
2013-06-04 21:23:00,61.7,49.0,30.10,SSW,201,0.0,0.0,63,0.00,,---,0.00,VWS V14.01,2013-06-05 01:23:00,
2013-06-04 21:28:00,61.6,48.9,30.10,SSW,201,0.0,0.0,63,0.00,,---,0.00,VWS V14.01,2013-06-05 01:28:00,
2013-06-04 21:33:00,61.6,48.9,30.10,SSW,201,0.0,0.0,63,0.00,,---,0.00,VWS V14.01,2013-06-05 01:33:00,
2013-06-04 21:38:00,61.7,49.4,30.10,SSW,202,0.0,0.0,64,0.00,,---,0.00,VWS V14.01,2013-06-05 01:38:00,
2013-06-04 21:44:00,61.7,49.0,30.11,SSW,202,0.0,0.0,63,0.00,,---,0.00,VWS V14.01,2013-06-05 01:44:00,
2013-06-04 21:49:00,61.7,49.0,30.11,SSW,201,0.0,0.0,63,0.00,,---,0.00,VWS V14.01,2013-06-05 01:49:00,
2013-06-04 21:54:00,61.8,49.1,30.11,SSW,201,0.0,0.0,63,0.00,,---,0.00,VWS V14.01,2013-06-05 01:54:00,
2013-06-04 21:59:00,61.8,48.7,30.11,SSW,201,0.0,0.0,62,0.00,,---,0.00,VWS V14.01,2013-06-05 01:59:00,
2013-06-04 22:04:00,61.8,48.7,30.11,SSW,201,0.0,0.0,62,0.00,,---,0.00,VWS V14.01,2013-06-05 02:04:00,
2013-06-04 22:09:00,61.9,48.8,30.12,SSW,201,0.0,0.0,62,0.00,,---,0.00,VWS V14.01,2013-06-05 02:09:00,
2013-06-04 22:14:00,61.9,48.8,30.12,SSW,201,0.0,0.0,62,0.00,,---,0.00,VWS V14.01,2013-06-05 02:14:00,
2013-06-04 22:19:00,61.9,48.8,30.12,SSW,201,0.0,0.0,62,0.00,,---,0.00,VWS V14.01,2013-06-05 02:19:00,
2013-06-04 22:26:00,61.9,48.8,30.12,SSW,201,0.0,0.0,62,0.00,,---,0.00,VWS V14.01,2013-06-05 02:26:00,
2013-06-04 22:32:00,61.8,49.1,30.12,SSW,202,0.0,0.0,63,0.00,,---,0.00,VWS V14.01,2013-06-05 02:32:00,
2013-06-04 22:37:00,61.9,48.8,30.12,SSW,201,0.0,0.0,62,0.00,,---,0.00,VWS V14.01,2013-06-05 02:37:00,
2013-06-04 22:42:00,62.0,49.3,30.12,SSW,200,0.0,0.0,63,0.00,,---,0.00,VWS V14.01,2013-06-05 02:42:00,
2013-06-04 22:47:00,61.9,49.2,30.12,SSW,201,0.0,0.0,63,0.00,,---,0.00,VWS V14.01,2013-06-05 02:47:00,
2013-06-04 22:52:00,61.8,49.1,30.12,SSW,202,0.0,0.0,63,0.00,,---,0.00,VWS V14.01,2013-06-05 02:52:00,
2013-06-04 22:57:00,61.9,49.2,30.12,SSW,201,0.0,0.0,63,0.00,,---,0.00,VWS V14.01,2013-06-05 02:57:00,
2013-06-04 23:02:00,61.9,49.2,30.12,SSW,201,0.0,0.0,63,0.00,,---,0.00,VWS V14.01,2013-06-05 03:02:00,
2013-06-04 23:07:00,61.9,48.8,30.12,SSW,201,0.0,0.0,62,0.00,,---,0.00,VWS V14.01,2013-06-05 03:07:00,
2013-06-04 23:13:00,61.9,48.8,30.12,SSW,201,0.0,0.0,62,0.00,,---,0.00,VWS V14.01,2013-06-05 03:13:00,
2013-06-04 23:18:00,62.0,48.4,30.12,SSW,201,0.0,0.0,61,0.00,,---,0.00,VWS V14.01,2013-06-05 03:18:00,
2013-06-04 23:23:00,62.0,48.4,30.12,SSW,201,0.0,0.0,61,0.00,,---,0.00,VWS V14.01,2013-06-05 03:23:00,
2013-06-04 23:28:00,62.0,48.8,30.12,SSW,200,0.0,0.0,62,0.00,,---,0.00,VWS V14.01,2013-06-05 03:28:00,
2013-06-04 23:33:00,62.0,48.4,30.12,SSW,201,0.0,0.0,61,0.00,,---,0.00,VWS V14.01,2013-06-05 03:33:00,
2013-06-04 23:38:00,62.0,48.8,30.12,SSW,201,0.0,0.0,62,0.00,,---,0.00,VWS V14.01,2013-06-05 03:38:00,
2013-06-04 23:43:00,62.0,48.4,30.12,SSW,201,0.0,0.0,61,0.00,,---,0.00,VWS V14.01,2013-06-05 03:43:00,
2013-06-04 23:48:00,62.0,48.8,30.12,SSW,201,0.0,0.0,62,0.00,,---,0.00,VWS V14.01,2013-06-05 03:48:00,
2013-06-04 23:53:00,62.0,48.8,30.12,SSW,200,0.0,0.0,62,0.00,,---,0.00,VWS V14.01,2013-06-05 03:53:00,
2013-06-04 23:58:00,62.0,48.8,30.12,SSW,201,0.0,0.0,62,0.00,,---,0.00,VWS V14.01,2013-06-05 03:58:00,